createdAt,value
2018-03-27T00:00:41.449Z,5.3
2018-03-27T00:17:17.044Z,5.3
2018-03-27T00:33:52.602Z,5.3
2018-03-27T00:50:28.227Z,5.6
2018-03-27T01:07:03.925Z,5.6
2018-03-27T01:23:39.677Z,5.6
2018-03-27T01:40:15.366Z,5.6
2018-03-27T01:56:51.169Z,5.6
2018-03-27T02:13:26.955Z,5.6
2018-03-27T02:30:02.762Z,5.6
2018-03-27T02:46:38.449Z,5.6
2018-03-27T03:03:14.168Z,5.3
2018-03-27T03:11:31.878Z,4.6
2018-03-27T03:28:06.982Z,4.6
2018-03-27T03:44:42.021Z,4.3
2018-03-27T04:01:17.060Z,4.3
2018-03-27T04:17:51.945Z,4.3
2018-03-27T04:34:26.830Z,4.3
2018-03-27T04:51:01.691Z,4.0
2018-03-27T05:07:36.305Z,3.7
2018-03-27T05:24:10.807Z,3.7
2018-03-27T05:40:45.304Z,3.7
2018-03-27T05:57:19.747Z,3.4
2018-03-27T06:13:54.130Z,3.7
2018-03-27T06:30:28.792Z,4.0
2018-03-27T06:47:03.564Z,4.0
2018-03-27T07:03:38.404Z,4.3
2018-03-27T07:16:54.840Z,5.0
2018-03-27T07:33:30.637Z,5.3
2018-03-27T07:50:06.705Z,5.9
2018-03-27T08:06:44.147Z,6.2
2018-03-27T08:13:22.314Z,6.9
2018-03-27T08:29:58.636Z,6.6
2018-03-27T08:46:35.145Z,6.2
2018-03-27T09:03:11.777Z,6.9
2018-03-27T09:09:50.629Z,7.8
2018-03-27T09:16:29.687Z,8.5
2018-03-27T09:33:07.715Z,8.5
2018-03-27T09:49:45.658Z,8.2
2018-03-27T10:06:23.537Z,8.2
2018-03-27T10:16:22.174Z,8.8
2018-03-27T10:29:40.963Z,9.4
2018-03-27T10:43:00.053Z,9.8
2018-03-27T10:52:59.642Z,10.4
2018-03-27T10:59:39.567Z,10.4
2018-03-27T11:16:19.232Z,10.7
2018-03-27T11:22:59.222Z,11.4
2018-03-27T11:29:39.319Z,11.4
2018-03-27T11:46:19.584Z,11.7
2018-03-27T11:59:40.198Z,12.0
2018-03-27T12:03:00.342Z,12.0
2018-03-27T12:06:20.431Z,11.7
2018-03-27T12:13:00.766Z,12.3
2018-03-27T12:16:20.941Z,12.0
2018-03-27T12:33:01.705Z,12.0
2018-03-27T12:46:22.373Z,12.0
2018-03-27T12:49:42.546Z,12.0
2018-03-27T12:53:02.642Z,11.7
2018-03-27T13:09:43.274Z,11.7
2018-03-27T13:13:03.387Z,12.0
2018-03-27T13:29:44.064Z,12.0
2018-03-27T13:46:24.836Z,11.4
2018-03-27T14:03:04.894Z,11.4
2018-03-27T14:19:45.007Z,11.4
2018-03-27T14:36:25.439Z,11.7
2018-03-27T14:53:06.041Z,11.7
2018-03-27T15:09:46.418Z,11.4
2018-03-27T15:26:26.999Z,11.0
2018-03-27T15:39:46.090Z,10.4
2018-03-27T15:56:25.662Z,10.4
2018-03-27T16:13:05.318Z,10.4
2018-03-27T16:29:44.515Z,10.1
2018-03-27T16:39:43.921Z,9.8
2018-03-27T16:56:22.597Z,9.1
2018-03-27T17:09:41.317Z,9.1
2018-03-27T17:26:19.959Z,8.8
2018-03-27T17:42:57.824Z,8.5
2018-03-27T17:59:35.893Z,8.5
2018-03-27T18:16:13.763Z,8.2
2018-03-27T18:32:51.459Z,7.8
2018-03-27T19:06:06.594Z,7.8
2018-03-27T19:22:44.260Z,7.8
2018-03-27T19:39:21.880Z,7.8
2018-03-27T19:55:59.414Z,7.5
2018-03-27T20:12:37.026Z,7.5
2018-03-27T20:29:14.318Z,7.5
2018-03-27T20:45:51.729Z,7.2
2018-03-27T21:02:29.124Z,7.2
2018-03-27T21:19:06.489Z,7.2
2018-03-27T21:35:44.017Z,7.2
2018-03-27T21:52:20.767Z,7.2
2018-03-27T22:08:58.096Z,7.2
2018-03-27T22:25:35.023Z,7.2
2018-03-27T22:42:12.252Z,7.2
2018-03-27T22:58:48.792Z,7.2
2018-03-27T23:15:25.721Z,7.2
2018-03-27T23:32:02.983Z,7.2
2018-03-27T23:48:39.369Z,7.2
